Ancona, IL (61311)

6:56 AM CDT on September 01, 2015 (GMT -0500)
APRSWXNET | | Change Station
CLOSE
Current Station
Personal Weather Station
Location: Streator, IL
Elevation: 557 ft
Nearby Weather Stations

Elev 557 ft 41.13 °N, 88.85 °W | Updated 24 minutes ago

Clear
Clear
69 °F
Feels Like 69 °F
N
0
Wind Variable Wind from South
Gusts 0.0 mph

Today
High -- | Low -- °F
--% Chance of Precip.
Yesterday
High -- | Low -- °F
Precip. -- in
6:22 AM 7:28 PM
Waning Gibbous, 89% visible
Pressure 30.07 in
Visibility 1.8 miles
Clouds
Dew Point 68 °F
Humidity 97%
Rainfall in
Snow Depth Not available.
UV Not available.
Pollen 10.90 out of 12
Air Quality Not available.
Flu Activity Not available.
METAR KPNT 011135Z AUTO 18003KT 1 3/4SM BR VV007 21/20 A3007 RMK AO2 LTG DSNT SE AND S T02050204
Pressure 30.07 in
Visibility 1.8 miles
Clouds
Dew Point 68 °F
Humidity 97%
Rainfall in
Snow Depth Not available.
UV Not available.
Pollen 10.90 out of 12
Air Quality Not available.
Flu Activity Not available.
METAR KPNT 011135Z AUTO 18003KT 1 3/4SM BR VV007 21/20 A3007 RMK AO2 LTG DSNT SE AND S T02050204

10-Day Weather Forecast

×

Almanac

Astronomy

Sep. 01, 2015 Rise Set
Actual Time
Civil Twilight
Nautical Twilight
Astronomical Twilight
Moon
Length of Visible Light
Length of Day
Tomorrow will be .
, % of the Moon is Illuminated

Today's Extremes

State Highs State Lows

Community

WunderPhotos

Upload Photos

1,851,506 photos uploaded!

WunderBlogs® & News

Nearby

Air Quality

  Air Quality AQ Index Pollutant
Not available.

Snow Depth

Station Depth Elevation

Earthquake Activity

City Distance Mag. Time & Date
Minimum magnitude displayed is 2.5.

Coastal Water Temperatures

Place Temperature

Stations

Nearby Weather Stations

Station Location Temp. Windchill Dew Point Humidity Wind Precip. Elev Updated Type